createdAt,value
2023-03-29T00:01:07.543Z,1.10
2023-03-29T00:04:13.612Z,1.33
2023-03-29T00:07:16.089Z,1.48
2023-03-29T00:10:18.564Z,1.00
2023-03-29T00:13:20.950Z,1.52
2023-03-29T00:16:23.324Z,1.00
2023-03-29T00:19:25.966Z,1.37
2023-03-29T00:22:28.342Z,1.52
2023-03-29T00:25:30.659Z,1.70
2023-03-29T00:28:32.969Z,1.70
2023-03-29T00:31:35.366Z,1.70
2023-03-29T00:34:37.777Z,1.27
2023-03-29T00:37:41.408Z,0.90
2023-03-29T00:40:47.089Z,1.50
2023-03-29T00:44:01.689Z,1.35
2023-03-29T00:47:04.129Z,1.27
2023-03-29T00:50:22.362Z,1.20
2023-03-29T00:53:33.507Z,1.02
2023-03-29T00:56:40.556Z,1.23
2023-03-29T00:59:43.800Z,1.13
2023-03-29T01:02:51.180Z,1.20
2023-03-29T01:06:00.285Z,1.30
2023-03-29T01:09:10.364Z,1.13
2023-03-29T01:12:17.240Z,1.60
2023-03-29T01:15:25.204Z,1.35
2023-03-29T01:18:27.549Z,1.03
2023-03-29T01:21:49.530Z,1.17
2023-03-29T01:25:07.718Z,0.95
2023-03-29T01:28:15.800Z,1.48
2023-03-29T01:31:23.279Z,1.23
2023-03-29T01:34:49.234Z,2.00
2023-03-29T01:38:20.769Z,1.10
2023-03-29T01:41:29.405Z,1.25
2023-03-29T01:45:13.204Z,0.70
2023-03-29T01:48:21.498Z,1.40
2023-03-29T01:51:37.619Z,1.70
2023-03-29T01:54:47.599Z,0.80
2023-03-29T01:57:52.200Z,1.40
2023-03-29T02:00:55.476Z,0.80
2023-03-29T02:04:03.110Z,1.30
2023-03-29T02:07:08.999Z,1.10
2023-03-29T02:10:12.134Z,1.23
2023-03-29T02:13:14.531Z,1.67
2023-03-29T02:16:17.246Z,1.35
2023-03-29T02:19:20.043Z,1.05
2023-03-29T02:22:28.911Z,1.30
2023-03-29T02:25:32.624Z,0.87
2023-03-29T02:28:35.590Z,1.20
2023-03-29T02:31:50.041Z,2.10
2023-03-29T02:35:00.148Z,1.20
2023-03-29T02:38:08.989Z,1.60
2023-03-29T02:41:12.230Z,1.40
2023-03-29T02:44:18.822Z,1.45
2023-03-29T02:47:25.706Z,1.60
2023-03-29T02:50:31.289Z,3.00
2023-03-29T02:53:41.413Z,0.87
2023-03-29T02:56:49.360Z,1.57
2023-03-29T02:59:52.795Z,1.30
2023-03-29T03:02:55.342Z,1.35
2023-03-29T03:05:57.981Z,1.60
2023-03-29T03:09:00.304Z,1.70
2023-03-29T03:12:07.707Z,1.50
2023-03-29T03:15:10.637Z,1.63
2023-03-29T03:18:16.178Z,1.58
2023-03-29T03:21:18.969Z,1.60
2023-03-29T03:24:21.356Z,1.20
2023-03-29T03:27:23.697Z,2.53
2023-03-29T03:30:26.089Z,1.38
2023-03-29T03:33:28.511Z,1.38
2023-03-29T03:36:49.449Z,1.10
2023-03-29T03:39:52.046Z,1.17
2023-03-29T03:42:54.512Z,1.60
2023-03-29T03:45:57.487Z,1.48
2023-03-29T03:49:01.047Z,1.00
2023-03-29T03:52:09.753Z,1.38
2023-03-29T03:55:12.346Z,1.67
2023-03-29T03:58:27.738Z,2.70
2023-03-29T04:01:30.173Z,1.00
2023-03-29T04:04:43.453Z,1.40
2023-03-29T04:07:48.977Z,1.17
2023-03-29T04:11:09.294Z,2.47
2023-03-29T04:14:13.725Z,5.00
2023-03-29T04:17:48.542Z,3.30
2023-03-29T04:21:13.810Z,4.90
2023-03-29T04:24:17.266Z,3.63
2023-03-29T04:27:29.837Z,1.97
2023-03-29T04:30:34.058Z,2.83
2023-03-29T04:33:54.876Z,2.78
2023-03-29T04:36:58.833Z,3.17
2023-03-29T04:40:01.433Z,2.45
2023-03-29T04:43:11.103Z,2.73
2023-03-29T04:46:20.120Z,3.33
2023-03-29T04:49:42.781Z,2.28
2023-03-29T04:52:52.061Z,1.92
2023-03-29T04:55:55.656Z,6.15
2023-03-29T04:59:17.008Z,3.13
2023-03-29T05:02:19.793Z,1.83
2023-03-29T05:05:24.773Z,1.25
2023-03-29T05:08:28.172Z,2.90
2023-03-29T05:11:48.553Z,2.45
2023-03-29T05:14:51.057Z,2.23
2023-03-29T05:17:53.652Z,3.80
2023-03-29T05:20:56.996Z,3.33
2023-03-29T05:24:01.673Z,2.78
2023-03-29T05:27:24.873Z,2.60
2023-03-29T05:30:38.184Z,2.80
2023-03-29T05:33:54.006Z,6.77
2023-03-29T05:36:57.004Z,9.68
2023-03-29T05:40:05.638Z,9.80
2023-03-29T05:43:12.375Z,3.60
2023-03-29T05:46:15.493Z,5.10
2023-03-29T05:49:24.240Z,3.33
2023-03-29T05:52:36.749Z,2.92
2023-03-29T05:55:39.061Z,6.05
2023-03-29T05:58:41.583Z,5.40
2023-03-29T06:01:47.031Z,5.60
2023-03-29T06:04:51.958Z,7.47
2023-03-29T06:08:01.002Z,4.80
2023-03-29T06:11:24.404Z,4.90
2023-03-29T06:14:45.734Z,7.55
2023-03-29T06:18:02.496Z,5.43
2023-03-29T06:21:05.876Z,3.83
2023-03-29T06:24:09.372Z,5.97
2023-03-29T06:27:17.744Z,7.80
2023-03-29T06:30:21.551Z,11.93
2023-03-29T06:33:30.716Z,12.13
2023-03-29T06:36:51.150Z,9.27
2023-03-29T06:39:57.038Z,10.65
2023-03-29T06:43:07.518Z,12.20
2023-03-29T06:46:42.566Z,16.30
2023-03-29T06:49:45.115Z,16.73
2023-03-29T06:53:05.380Z,14.73
2023-03-29T06:56:09.866Z,13.50
2023-03-29T06:59:21.029Z,14.63
2023-03-29T07:02:34.755Z,11.57
2023-03-29T07:05:47.586Z,15.10
2023-03-29T07:08:52.874Z,21.70
2023-03-29T07:12:15.563Z,15.77
2023-03-29T07:15:19.274Z,15.70
2023-03-29T07:18:41.762Z,18.02
2023-03-29T07:21:45.971Z,17.07
2023-03-29T07:24:49.710Z,14.83
2023-03-29T07:27:52.274Z,18.10
2023-03-29T07:31:02.369Z,19.10
2023-03-29T07:34:10.780Z,13.88
2023-03-29T07:37:13.553Z,12.97
2023-03-29T07:40:19.798Z,13.73
2023-03-29T07:43:31.368Z,12.07
2023-03-29T07:46:34.120Z,11.45
2023-03-29T07:49:36.762Z,22.55
2023-03-29T07:52:39.711Z,15.87
2023-03-29T07:55:47.690Z,10.03
2023-03-29T07:59:09.349Z,13.27
2023-03-29T08:02:13.712Z,11.55
2023-03-29T08:05:37.761Z,12.00
2023-03-29T08:08:46.912Z,20.37
2023-03-29T08:11:52.028Z,11.87
2023-03-29T08:15:03.173Z,13.23
2023-03-29T08:18:09.085Z,13.52
2023-03-29T08:21:11.842Z,10.10
2023-03-29T08:24:14.833Z,12.03
2023-03-29T08:27:22.042Z,10.30
2023-03-29T08:30:25.407Z,13.55
2023-03-29T08:33:28.081Z,13.45
2023-03-29T08:36:54.163Z,12.20
2023-03-29T08:40:06.307Z,12.37
2023-03-29T08:43:49.118Z,13.90
2023-03-29T08:47:25.648Z,11.50
2023-03-29T08:50:35.272Z,80.30
2023-03-29T08:53:47.262Z,61.25
2023-03-29T08:57:21.239Z,35.57
2023-03-29T09:00:41.309Z,28.20
2023-03-29T09:03:57.194Z,23.55
2023-03-29T09:07:11.905Z,26.92
2023-03-29T09:10:31.500Z,53.05
2023-03-29T09:13:43.903Z,32.67
2023-03-29T09:16:59.140Z,27.03
2023-03-29T09:20:27.181Z,22.45
2023-03-29T09:23:52.571Z,29.73
2023-03-29T09:27:23.862Z,18.77
2023-03-29T09:30:41.646Z,25.63
2023-03-29T09:33:52.532Z,27.67
2023-03-29T09:37:21.465Z,27.33
2023-03-29T09:40:34.764Z,26.40
2023-03-29T09:43:48.403Z,29.00
2023-03-29T09:47:36.287Z,18.17
2023-03-29T09:50:47.441Z,15.93
2023-03-29T09:53:50.652Z,20.17
2023-03-29T09:57:17.940Z,23.38
2023-03-29T10:00:21.000Z,18.20
2023-03-29T10:03:32.301Z,20.40
2023-03-29T10:06:49.266Z,19.93
2023-03-29T10:09:55.997Z,16.77
2023-03-29T10:13:05.526Z,19.27
2023-03-29T10:16:10.105Z,22.67
2023-03-29T10:19:22.552Z,23.60
2023-03-29T10:22:27.821Z,22.20
2023-03-29T10:25:32.971Z,18.65
2023-03-29T10:28:37.106Z,25.98
2023-03-29T10:31:42.629Z,24.73
2023-03-29T10:34:46.989Z,23.50
2023-03-29T10:37:52.098Z,20.93
2023-03-29T10:40:55.811Z,17.00
2023-03-29T10:44:00.134Z,23.30
2023-03-29T10:47:14.348Z,23.88
2023-03-29T10:50:17.130Z,17.50
2023-03-29T10:53:35.382Z,15.47
2023-03-29T10:56:51.983Z,13.38
2023-03-29T11:00:20.527Z,16.58
2023-03-29T11:03:22.926Z,16.80
2023-03-29T11:06:45.613Z,28.57
2023-03-29T11:10:21.473Z,24.83
2023-03-29T11:13:42.541Z,18.05
2023-03-29T11:17:20.230Z,13.77
2023-03-29T11:20:23.051Z,14.80
2023-03-29T11:23:47.106Z,16.27
2023-03-29T11:26:59.421Z,14.07
2023-03-29T11:30:06.520Z,13.90
2023-03-29T11:33:36.447Z,15.75
2023-03-29T11:36:50.839Z,14.35
2023-03-29T11:40:32.035Z,14.47
2023-03-29T11:43:37.931Z,16.63
2023-03-29T11:46:42.029Z,14.63
2023-03-29T11:49:49.369Z,14.18
2023-03-29T11:52:55.428Z,12.57
2023-03-29T11:56:13.593Z,13.10
2023-03-29T11:59:23.921Z,9.77
2023-03-29T12:02:54.260Z,14.73
2023-03-29T12:06:12.552Z,9.98
2023-03-29T12:09:28.063Z,16.65
2023-03-29T12:12:43.660Z,9.50
2023-03-29T12:15:50.629Z,22.40
2023-03-29T12:18:57.730Z,15.20
2023-03-29T12:22:01.358Z,10.27
2023-03-29T12:25:09.642Z,11.07
2023-03-29T12:28:57.329Z,13.70
2023-03-29T12:31:59.743Z,8.33
2023-03-29T12:35:31.045Z,10.57
2023-03-29T12:38:52.826Z,11.98
2023-03-29T12:42:21.093Z,11.95
2023-03-29T12:45:48.619Z,9.03
2023-03-29T12:49:01.230Z,13.00
2023-03-29T12:52:27.431Z,10.82
2023-03-29T12:55:47.857Z,7.90
2023-03-29T12:59:07.729Z,9.00
2023-03-29T13:02:13.980Z,11.43
2023-03-29T13:05:32.448Z,13.93
2023-03-29T13:08:43.579Z,10.40
2023-03-29T13:11:53.075Z,12.48
2023-03-29T13:14:59.416Z,9.57
2023-03-29T13:18:12.378Z,16.77
2023-03-29T13:21:27.701Z,11.50
2023-03-29T13:24:36.158Z,11.90
2023-03-29T13:27:59.046Z,9.82
2023-03-29T13:31:16.851Z,16.83
2023-03-29T13:34:30.291Z,11.63
2023-03-29T13:38:01.833Z,8.03
2023-03-29T13:41:06.118Z,12.68
2023-03-29T13:44:34.365Z,13.95
2023-03-29T13:47:58.397Z,8.70
2023-03-29T13:51:19.011Z,12.00
2023-03-29T13:54:27.228Z,8.73
2023-03-29T13:57:41.524Z,8.35
2023-03-29T14:00:54.192Z,8.27
2023-03-29T14:03:56.827Z,12.13
2023-03-29T14:06:59.693Z,9.63
2023-03-29T14:10:02.392Z,11.13
2023-03-29T14:13:04.862Z,11.50
2023-03-29T14:16:10.380Z,11.27
2023-03-29T14:19:18.977Z,21.67
2023-03-29T14:22:21.725Z,11.87
2023-03-29T14:25:24.287Z,12.17
2023-03-29T14:28:28.468Z,11.70
2023-03-29T14:31:36.755Z,16.17
2023-03-29T14:34:40.222Z,9.15
2023-03-29T14:37:42.685Z,19.00
2023-03-29T14:40:45.718Z,10.20
2023-03-29T14:43:48.189Z,9.95
2023-03-29T14:46:50.546Z,11.48
2023-03-29T14:49:54.532Z,17.77
2023-03-29T14:52:58.026Z,10.63
2023-03-29T14:56:02.216Z,8.67
2023-03-29T14:59:05.045Z,9.77
2023-03-29T15:02:32.476Z,11.45
2023-03-29T15:05:41.187Z,10.38
2023-03-29T15:08:54.404Z,12.07
2023-03-29T15:12:06.572Z,18.60
2023-03-29T15:15:12.042Z,14.30
2023-03-29T15:18:16.032Z,13.82
2023-03-29T15:21:21.414Z,20.10
2023-03-29T15:24:29.314Z,12.87
2023-03-29T15:27:41.795Z,46.10
2023-03-29T15:30:49.464Z,22.92
2023-03-29T15:34:14.176Z,30.92
2023-03-29T15:37:16.873Z,25.85
2023-03-29T15:40:24.000Z,21.17
2023-03-29T15:43:27.011Z,24.27
2023-03-29T15:46:29.407Z,17.25
2023-03-29T15:49:31.750Z,15.70
2023-03-29T15:52:34.269Z,18.80
2023-03-29T15:55:39.898Z,22.77
2023-03-29T15:58:42.325Z,23.90
2023-03-29T16:01:45.291Z,19.60
2023-03-29T16:04:47.780Z,17.98
2023-03-29T16:07:50.444Z,19.08
2023-03-29T16:10:52.831Z,14.10
2023-03-29T16:13:56.011Z,17.73
2023-03-29T16:16:59.557Z,18.65
2023-03-29T16:20:01.994Z,15.40
2023-03-29T16:23:09.377Z,13.45
2023-03-29T16:26:12.681Z,17.13
2023-03-29T16:29:17.368Z,13.17
2023-03-29T16:32:19.968Z,20.88
2023-03-29T16:35:27.828Z,15.63
2023-03-29T16:38:30.819Z,15.55
2023-03-29T16:41:33.303Z,17.63
2023-03-29T16:44:35.794Z,12.50
2023-03-29T16:47:39.458Z,13.63
2023-03-29T16:50:41.973Z,18.33
2023-03-29T16:53:44.385Z,12.65
2023-03-29T16:56:47.043Z,14.07
2023-03-29T16:59:49.660Z,14.93
2023-03-29T17:02:52.810Z,9.40
2023-03-29T17:05:55.540Z,12.85
2023-03-29T17:08:59.144Z,19.52
2023-03-29T17:12:01.561Z,13.20
2023-03-29T17:15:05.698Z,13.37
2023-03-29T17:18:08.324Z,13.20
2023-03-29T17:21:10.900Z,11.48
2023-03-29T17:24:13.208Z,9.25
2023-03-29T17:27:15.759Z,9.93
2023-03-29T17:30:18.407Z,10.30
2023-03-29T17:33:22.826Z,8.02
2023-03-29T17:36:26.049Z,9.60
2023-03-29T17:39:28.447Z,11.23
2023-03-29T17:42:30.805Z,10.17
2023-03-29T17:45:35.386Z,8.53
2023-03-29T17:48:37.798Z,9.27
2023-03-29T17:51:40.374Z,13.00
2023-03-29T17:54:42.804Z,10.95
2023-03-29T17:57:45.356Z,9.07
2023-03-29T18:00:47.844Z,10.77
2023-03-29T18:03:50.477Z,9.30
2023-03-29T18:06:53.438Z,10.88
2023-03-29T18:09:56.029Z,9.50
2023-03-29T18:12:58.553Z,8.10
2023-03-29T18:16:01.683Z,11.73
2023-03-29T18:19:04.546Z,13.95
2023-03-29T18:22:06.906Z,8.68
2023-03-29T18:25:09.746Z,9.25
2023-03-29T18:28:12.469Z,9.43
2023-03-29T18:31:16.122Z,10.27
2023-03-29T18:34:18.893Z,8.00
2023-03-29T18:37:21.465Z,7.75
2023-03-29T18:40:24.893Z,9.15
2023-03-29T18:43:27.470Z,8.70
2023-03-29T18:46:33.337Z,8.40
2023-03-29T18:49:36.834Z,7.57
2023-03-29T18:52:40.073Z,9.13
2023-03-29T18:55:43.201Z,8.05
2023-03-29T18:58:46.387Z,8.07
2023-03-29T19:01:49.076Z,7.20
2023-03-29T19:04:51.722Z,7.00
2023-03-29T19:07:54.278Z,6.32
2023-03-29T19:11:04.745Z,7.25
2023-03-29T19:14:09.201Z,7.93
2023-03-29T19:17:11.801Z,9.03
2023-03-29T19:20:14.169Z,5.78
2023-03-29T19:23:18.037Z,7.43
2023-03-29T19:26:20.661Z,6.50
2023-03-29T19:29:23.645Z,7.50
2023-03-29T19:32:27.287Z,5.80
2023-03-29T19:35:29.915Z,6.68
2023-03-29T19:38:32.502Z,7.22
2023-03-29T19:41:34.920Z,6.50
2023-03-29T19:44:38.359Z,7.50
2023-03-29T19:47:42.981Z,8.13
2023-03-29T19:50:46.700Z,8.27
2023-03-29T19:53:49.943Z,8.82
2023-03-29T19:56:52.878Z,8.93
2023-03-29T19:59:55.493Z,7.30
2023-03-29T20:02:57.845Z,4.30
2023-03-29T20:06:00.565Z,6.22
2023-03-29T20:09:05.179Z,6.93
2023-03-29T20:12:07.784Z,3.85
2023-03-29T20:15:10.744Z,5.93
2023-03-29T20:18:13.383Z,6.27
2023-03-29T20:21:18.810Z,8.15
2023-03-29T20:24:22.189Z,8.00
2023-03-29T20:27:25.591Z,6.00
2023-03-29T20:30:28.036Z,6.43
2023-03-29T20:33:30.606Z,5.23
2023-03-29T20:36:33.150Z,8.18
2023-03-29T20:39:35.745Z,5.07
2023-03-29T20:42:38.765Z,5.93
2023-03-29T20:45:52.597Z,6.07
2023-03-29T20:48:56.479Z,5.70
2023-03-29T20:51:58.824Z,7.68
2023-03-29T20:55:01.152Z,6.30
2023-03-29T20:58:03.686Z,4.22
2023-03-29T21:01:06.329Z,5.77
2023-03-29T21:04:09.406Z,6.07
2023-03-29T21:07:11.797Z,6.40
2023-03-29T21:10:15.624Z,5.40
2023-03-29T21:13:18.420Z,7.57
2023-03-29T21:16:20.865Z,7.97
2023-03-29T21:19:24.261Z,7.10
2023-03-29T21:22:26.570Z,5.05
2023-03-29T21:25:29.024Z,5.00
2023-03-29T21:28:31.496Z,6.07
2023-03-29T21:31:33.837Z,6.67
2023-03-29T21:34:36.300Z,6.07
2023-03-29T21:37:38.681Z,5.65
2023-03-29T21:40:41.043Z,7.13
2023-03-29T21:43:43.731Z,5.47
2023-03-29T21:46:46.286Z,5.07
2023-03-29T21:49:48.712Z,5.93
2023-03-29T21:52:51.150Z,7.43
2023-03-29T21:55:54.045Z,7.20
2023-03-29T21:58:56.415Z,6.50
2023-03-29T22:01:58.786Z,5.33
2023-03-29T22:05:01.215Z,7.27
2023-03-29T22:08:04.824Z,5.82
2023-03-29T22:11:13.864Z,4.80
2023-03-29T22:14:16.368Z,6.65
2023-03-29T22:17:18.744Z,8.83
2023-03-29T22:20:21.058Z,3.93
2023-03-29T22:23:24.955Z,6.38
2023-03-29T22:26:29.940Z,5.07
2023-03-29T22:29:32.574Z,4.85
2023-03-29T22:32:34.987Z,6.30
2023-03-29T22:35:37.438Z,4.60
2023-03-29T22:38:39.869Z,5.45
2023-03-29T22:41:42.346Z,7.90
2023-03-29T22:44:44.674Z,5.90
2023-03-29T22:47:47.216Z,5.23
2023-03-29T22:50:49.568Z,5.53
2023-03-29T22:53:52.093Z,6.80
2023-03-29T22:56:54.620Z,5.30
2023-03-29T22:59:56.950Z,5.97
2023-03-29T23:02:59.459Z,4.97
2023-03-29T23:06:04.681Z,5.57
2023-03-29T23:09:07.161Z,5.40
2023-03-29T23:12:09.817Z,5.38
2023-03-29T23:15:12.505Z,5.07
2023-03-29T23:18:22.131Z,4.73
2023-03-29T23:21:25.034Z,5.73
2023-03-29T23:24:30.456Z,7.43
2023-03-29T23:27:33.186Z,6.20
2023-03-29T23:30:38.675Z,6.32
2023-03-29T23:33:42.861Z,4.23
2023-03-29T23:36:45.367Z,5.53
2023-03-29T23:39:47.718Z,4.78
2023-03-29T23:42:50.478Z,3.92
2023-03-29T23:45:57.238Z,4.43
2023-03-29T23:48:59.539Z,4.90
2023-03-29T23:52:02.750Z,4.33
2023-03-29T23:55:05.573Z,4.20
2023-03-29T23:58:09.128Z,5.50
